Time;durP1;ratioP1;P1;durP2;ratioP2;P2;SDS_P1;SDS_P2;PMS_P1;PMS_P2;Temp;Humidity;BMP_temperature;BMP_pressure;BME280_temperature;BME280_humidity;BME280_pressure;Samples;Min_cycle;Max_cycle;Signal;HPM_P1;HPM_P2
2023/12/11 00:02:24;;;;;;;;;3.33;2.33;;;;;11.88;91.75;100044.13;5064396;28;45240;-88
2023/12/11 00:04:49;;;;;;;;;3.00;1.33;;;;;11.89;91.62;100056.47;5065217;27;45553;-87
2023/12/11 00:07:15;;;;;;;;;2.00;2.00;;;;;11.90;91.75;100047.53;5082124;27;45279;-87
2023/12/11 00:09:40;;;;;;;;;2.00;2.00;;;;;11.87;91.61;100047.75;5080897;28;45801;-87
2023/12/11 00:12:06;;;;;;;;;3.00;1.67;;;;;11.88;91.29;100044.13;5080729;28;45523;-88
2023/12/11 00:14:31;;;;;;;;;1.67;1.67;;;;;11.86;91.26;100035.38;5079261;28;45329;-88
2023/12/11 00:16:57;;;;;;;;;2.00;0.00;;;;;11.83;91.11;100036.44;5079848;28;45316;-88
2023/12/11 00:19:22;;;;;;;;;2.67;1.00;;;;;11.81;91.05;100027.69;5080021;28;45434;-89
2023/12/11 00:21:47;;;;;;;;;4.00;3.00;;;;;11.80;90.68;100037.50;5080330;28;45768;-89
2023/12/11 00:24:13;;;;;;;;;3.33;2.00;;;;;11.80;90.49;100032.16;5076413;27;45333;-88
2023/12/11 00:26:39;;;;;;;;;4.00;1.00;;;;;11.74;90.67;100027.25;5042113;28;45363;-88
2023/12/11 00:29:04;;;;;;;;;2.00;2.00;;;;;11.74;90.70;100026.41;5059880;28;45421;-88
2023/12/11 00:31:30;;;;;;;;;1.33;1.33;;;;;11.72;90.66;100007.88;5061065;28;45476;-88
2023/12/11 00:33:55;;;;;;;;;2.00;2.00;;;;;11.65;90.29;100011.91;5061883;28;45567;-83
2023/12/11 00:36:20;;;;;;;;;2.67;1.00;;;;;11.69;90.38;100017.88;5080312;28;45401;-90
2023/12/11 00:38:46;;;;;;;;;1.00;1.00;;;;;11.68;90.25;100011.69;5083707;27;45251;-89
2023/12/11 00:41:11;;;;;;;;;3.00;2.00;;;;;11.66;90.53;100024.25;5087281;28;45378;-91
2023/12/11 00:43:37;;;;;;;;;1.00;1.00;;;;;11.56;90.26;100004.53;5082535;28;45453;-88
2023/12/11 00:46:02;;;;;;;;;2.33;2.00;;;;;11.65;90.07;100019.91;5081257;28;45659;-88
2023/12/11 00:48:28;;;;;;;;;0.67;0.00;;;;;11.65;90.13;100024.38;5080659;28;45449;-88
2023/12/11 00:50:53;;;;;;;;;4.00;3.00;;;;;11.59;89.70;100020.34;5080833;28;45332;-89
2023/12/11 00:53:18;;;;;;;;;2.67;2.00;;;;;11.59;89.96;100017.66;5080684;28;45656;-87
2023/12/11 00:55:44;;;;;;;;;2.33;2.00;;;;;11.60;89.97;100019.38;5082580;27;46158;-85
2023/12/11 00:58:09;;;;;;;;;1.00;1.00;;;;;11.48;89.60;99999.78;5075127;28;45427;-88
2023/12/11 01:00:34;;;;;;;;;3.00;1.67;;;;;11.49;89.61;99989.97;5060154;28;45185;-90
2023/12/11 01:03:00;;;;;;;;;4.00;1.00;;;;;11.59;89.74;99998.16;5059382;28;45599;-90
2023/12/11 01:05:26;;;;;;;;;5.67;2.00;;;;;11.55;89.49;100009.97;5056535;28;46193;-91
2023/12/11 01:07:51;;;;;;;;;0.67;0.67;;;;;11.51;88.94;100001.38;5061066;28;45240;-91
2023/12/11 01:10:16;;;;;;;;;3.67;2.33;;;;;11.52;88.91;100006.56;5080755;28;45228;-88
2023/12/11 01:12:42;;;;;;;;;2.33;1.00;;;;;11.47;89.03;100011.38;5082181;28;45370;-90
2023/12/11 01:15:08;;;;;;;;;1.00;1.00;;;;;11.52;88.67;100035.00;5079398;28;45315;-87
2023/12/11 01:17:34;;;;;;;;;0.00;0.00;;;;;11.52;88.78;100035.88;5078281;27;45395;-89
2023/12/11 01:19:59;;;;;;;;;2.00;2.00;;;;;11.46;88.58;100019.47;5079529;27;45406;-88
2023/12/11 01:22:24;;;;;;;;;3.33;1.33;;;;;11.53;88.56;100034.91;5079930;27;45297;-89
2023/12/11 01:24:50;;;;;;;;;1.00;1.00;;;;;11.54;88.71;100038.44;5083782;27;46073;-87
2023/12/11 01:27:15;;;;;;;;;3.00;1.00;;;;;11.46;88.93;100043.44;5083963;28;45381;-88
2023/12/11 01:29:40;;;;;;;;;3.00;1.00;;;;;11.54;88.35;100059.72;5080604;28;45716;-88
2023/12/11 01:32:06;;;;;;;;;1.33;1.00;;;;;11.51;88.85;100060.78;5079537;28;45340;-92
2023/12/11 01:34:31;;;;;;;;;4.00;2.00;;;;;11.51;88.42;100043.97;5078975;27;45468;-88
2023/12/11 01:36:59;;;;;;;;;2.00;2.00;;;;;11.49;88.18;100033.44;5069662;28;45233;-90
2023/12/11 01:39:25;;;;;;;;;8.00;2.00;;;;;11.50;88.35;100027.13;5073354;28;45242;-88
2023/12/11 01:41:50;;;;;;;;;1.00;0.33;;;;;11.54;88.08;100019.78;5060759;28;45638;-90
2023/12/11 01:44:15;;;;;;;;;0.67;0.33;;;;;11.56;88.09;100020.53;5079252;27;45312;-89
2023/12/11 01:46:41;;;;;;;;;1.33;1.00;;;;;11.56;87.04;100030.31;5081070;28;45283;-89
2023/12/11 01:49:06;;;;;;;;;1.67;1.33;;;;;11.62;87.31;100028.09;5067236;28;45376;-88
2023/12/11 01:51:32;;;;;;;;;3.67;2.00;;;;;11.68;87.26;100038.31;5063505;28;45295;-88
2023/12/11 01:53:57;;;;;;;;;9.00;2.00;;;;;11.60;86.74;100016.72;5064423;27;46123;-89
2023/12/11 01:56:23;;;;;;;;;3.00;1.33;;;;;11.74;86.45;100053.03;5080307;28;45350;-89
2023/12/11 01:58:48;;;;;;;;;3.00;1.00;;;;;11.75;86.79;100049.41;5079279;27;45319;-87
2023/12/11 02:01:16;;;;;;;;;3.00;2.00;;;;;11.77;86.72;100048.34;5080607;27;45393;-87
2023/12/11 02:03:41;;;;;;;;;4.67;2.33;;;;;11.80;86.58;100041.97;5076480;28;46439;-89
2023/12/11 02:06:06;;;;;;;;;4.00;1.00;;;;;11.81;86.63;100033.88;5079544;28;45426;-88
2023/12/11 02:08:32;;;;;;;;;4.00;2.00;;;;;11.75;86.07;100026.28;5061316;28;45469;-89
2023/12/11 02:10:58;;;;;;;;;5.00;2.00;;;;;11.78;86.63;100028.75;5060581;28;45534;-89
2023/12/11 02:13:23;;;;;;;;;2.00;2.00;;;;;11.73;86.64;100009.56;5060307;28;45517;-89
2023/12/11 02:15:50;;;;;;;;;3.67;1.00;;;;;11.69;86.85;99994.75;5060860;28;45325;-85
2023/12/11 02:18:16;;;;;;;;;2.33;1.00;;;;;11.69;86.49;100000.06;5061349;27;45394;-88
2023/12/11 02:20:44;;;;;;;;;3.67;1.00;;;;;11.70;86.79;100006.25;5059697;28;45347;-90
2023/12/11 02:23:46;;;;;;;;;2.67;1.67;;;;;11.70;86.50;100011.56;5057790;28;45458;-88
2023/12/11 02:26:16;;;;;;;;;3.33;3.00;;;;;11.68;86.76;100001.03;5057952;28;45284;-87
2023/12/11 02:28:42;;;;;;;;;2.00;2.00;;;;;11.66;86.91;100002.94;5056836;28;45359;-88
2023/12/11 02:31:07;;;;;;;;;1.67;1.00;;;;;11.63;86.88;100005.84;5061028;28;45502;-86
2023/12/11 02:33:33;;;;;;;;;2.00;2.00;;;;;11.62;86.62;99985.50;5097893;28;45265;-87
2023/12/11 02:35:58;;;;;;;;;2.00;0.33;;;;;11.66;86.71;100002.09;5084322;28;45238;-90
2023/12/11 02:38:24;;;;;;;;;5.00;2.00;;;;;11.64;87.21;100010.19;5063528;28;45346;-88
2023/12/11 02:40:49;;;;;;;;;3.33;2.00;;;;;11.57;87.49;100003.59;5061224;28;45508;-89
2023/12/11 02:43:15;;;;;;;;;1.00;1.00;;;;;11.61;87.42;99988.28;5062963;28;45579;-88
2023/12/11 02:45:41;;;;;;;;;4.67;1.00;;;;;11.64;87.18;99972.91;5059636;28;45702;-87
2023/12/11 02:48:07;;;;;;;;;3.00;1.00;;;;;11.69;87.09;99972.59;5070391;28;45186;-89
2023/12/11 02:50:32;;;;;;;;;5.00;2.67;;;;;11.73;86.89;99980.28;5077981;27;45632;-88
2023/12/11 02:52:59;;;;;;;;;2.00;2.00;;;;;11.74;86.61;100000.63;5078430;28;45935;-88
2023/12/11 02:55:24;;;;;;;;;2.33;1.00;;;;;11.77;87.04;100011.06;5078916;27;45307;-86
2023/12/11 02:57:51;;;;;;;;;3.67;2.00;;;;;11.73;86.78;99990.06;5069730;27;45429;-89
2023/12/11 03:00:17;;;;;;;;;4.00;1.00;;;;;11.77;87.01;99986.22;5058483;28;45333;-90
2023/12/11 03:02:42;;;;;;;;;1.33;1.33;;;;;11.76;86.99;99976.53;5040123;28;45428;-90
2023/12/11 03:05:10;;;;;;;;;2.67;2.67;;;;;11.76;86.97;99997.84;5039485;28;45364;-90
2023/12/11 03:07:36;;;;;;;;;9.00;1.00;;;;;11.74;86.69;99992.63;5065409;27;45248;-88
2023/12/11 03:10:01;;;;;;;;;9.67;2.67;;;;;11.80;87.03;100000.19;5074283;28;45318;-90
2023/12/11 03:12:26;;;;;;;;;4.67;1.33;;;;;11.73;87.00;99972.28;5057397;28;45821;-89
2023/12/11 03:14:51;;;;;;;;;1.33;1.33;;;;;11.77;87.15;99979.06;5057407;28;45785;-88
2023/12/11 03:17:17;;;;;;;;;3.00;1.00;;;;;11.82;86.84;99981.44;5060542;28;45694;-89
2023/12/11 03:19:42;;;;;;;;;3.33;3.00;;;;;11.78;86.88;99963.94;5078153;27;45720;-90
2023/12/11 03:22:08;;;;;;;;;1.67;0.67;;;;;11.80;87.05;99975.38;5059257;28;46021;-90
2023/12/11 03:24:33;;;;;;;;;3.00;1.67;;;;;11.78;87.05;99970.13;5078262;27;45463;-90
2023/12/11 03:26:58;;;;;;;;;1.00;1.00;;;;;11.71;86.93;99942.19;5078074;28;46255;-90
2023/12/11 03:29:24;;;;;;;;;11.00;2.00;;;;;11.79;87.04;99966.53;5078790;28;45404;-88
2023/12/11 03:31:49;;;;;;;;;4.00;2.00;;;;;11.79;86.74;99939.88;5070661;28;45433;-88
2023/12/11 03:34:14;;;;;;;;;4.67;1.67;;;;;11.67;87.15;99935.41;5040578;28;45622;-88
2023/12/11 03:36:40;;;;;;;;;3.00;1.00;;;;;11.76;86.84;99955.22;5060295;28;45777;-89
2023/12/11 03:39:07;;;;;;;;;3.00;2.00;;;;;11.78;87.00;99953.28;5079019;28;45503;-86
2023/12/11 03:41:33;;;;;;;;;4.00;4.00;;;;;11.78;86.79;99964.78;5069567;28;45407;-88
2023/12/11 03:43:58;;;;;;;;;3.00;1.00;;;;;11.79;87.03;99965.69;5060454;28;45272;-89
2023/12/11 03:46:23;;;;;;;;;4.00;4.00;;;;;11.78;86.94;99954.13;5057626;28;45398;-88
2023/12/11 03:48:48;;;;;;;;;2.00;2.00;;;;;11.82;86.98;99937.00;5076242;28;45437;-88
2023/12/11 03:51:14;;;;;;;;;4.00;3.00;;;;;11.82;87.25;99902.38;5076904;28;46199;-87
2023/12/11 03:53:40;;;;;;;;;3.33;3.00;;;;;11.77;87.10;99899.16;5058470;28;45318;-88
2023/12/11 03:56:05;;;;;;;;;7.67;2.00;;;;;11.82;87.04;99925.50;5077024;27;45236;-90
2023/12/11 03:58:31;;;;;;;;;3.00;1.00;;;;;11.89;87.02;99939.25;5066331;28;46898;-89
2023/12/11 04:00:56;;;;;;;;;5.33;3.00;;;;;11.88;87.23;99943.72;5062913;28;46000;-87
2023/12/11 04:03:21;;;;;;;;;2.00;0.00;;;;;11.87;87.15;99933.19;5062341;28;45315;-89
2023/12/11 04:05:47;;;;;;;;;8.33;3.00;;;;;11.85;87.17;99932.41;5060073;28;45263;-89
2023/12/11 04:08:12;;;;;;;;;4.00;2.67;;;;;11.85;86.07;99943.94;5068323;28;45474;-90
2023/12/11 04:10:38;;;;;;;;;3.00;1.67;;;;;11.91;87.11;99932.84;5076473;28;46430;-89
2023/12/11 04:13:04;;;;;;;;;8.67;4.00;;;;;11.93;87.06;99932.72;5076608;28;45292;-89
2023/12/11 04:15:29;;;;;;;;;11.33;1.33;;;;;11.84;86.82;99917.38;5076516;28;45313;-88
2023/12/11 04:17:54;;;;;;;;;5.33;2.00;;;;;11.94;87.22;99926.44;5076256;28;45458;-88
2023/12/11 04:20:20;;;;;;;;;2.00;2.00;;;;;11.95;86.71;99933.44;5076719;27;46334;-88
2023/12/11 04:22:45;;;;;;;;;3.67;1.00;;;;;12.01;86.68;99946.34;5061604;28;45334;-89
2023/12/11 04:25:11;;;;;;;;;5.33;2.00;;;;;12.02;86.54;99950.72;5058875;28;45321;-89
2023/12/11 04:27:36;;;;;;;;;1.00;1.00;;;;;12.02;86.98;99966.72;5061393;28;45526;-88
2023/12/11 04:30:01;;;;;;;;;3.00;3.00;;;;;11.97;86.84;99950.19;5040492;28;46276;-88
2023/12/11 04:32:27;;;;;;;;;6.00;3.00;;;;;12.05;86.67;99955.81;5056302;28;45383;-86
2023/12/11 04:34:52;;;;;;;;;4.00;2.67;;;;;12.09;86.78;99947.47;5056056;28;45457;-89
2023/12/11 04:37:17;;;;;;;;;4.00;1.00;;;;;12.00;86.21;99918.00;5042807;28;45509;-87
2023/12/11 04:39:43;;;;;;;;;4.00;2.00;;;;;12.16;85.93;99945.25;5077771;28;46200;-86
2023/12/11 04:42:08;;;;;;;;;5.33;2.00;;;;;12.16;85.89;99952.38;5077934;28;45415;-90
2023/12/11 04:44:34;;;;;;;;;6.33;2.33;;;;;12.19;86.14;99960.16;5077558;27;45461;-87
2023/12/11 04:46:59;;;;;;;;;10.00;3.00;;;;;12.22;86.06;99946.59;5061699;27;45301;-87
2023/12/11 04:49:24;;;;;;;;;2.00;2.00;;;;;12.24;85.88;99934.88;5082185;27;46460;-86
2023/12/11 04:51:50;;;;;;;;;3.00;3.00;;;;;12.24;86.09;99934.88;5085062;28;45189;-85
2023/12/11 04:54:15;;;;;;;;;3.00;1.67;;;;;12.24;85.89;99921.56;5088869;28;45802;-85
2023/12/11 04:56:40;;;;;;;;;6.00;3.33;;;;;12.17;85.67;99906.94;5092628;27;45497;-89
2023/12/11 04:59:06;;;;;;;;;4.33;2.33;;;;;12.24;85.63;99924.22;5089019;28;45457;-89
2023/12/11 05:01:31;;;;;;;;;2.00;2.00;;;;;12.28;85.25;99947.00;5082374;28;45230;-90
2023/12/11 05:03:57;;;;;;;;;3.67;2.00;;;;;12.25;85.62;99941.06;5078086;27;45346;-84
2023/12/11 05:06:22;;;;;;;;;5.00;1.00;;;;;12.25;85.38;99960.56;5069240;27;45577;-87
2023/12/11 05:08:47;;;;;;;;;4.00;3.67;;;;;12.21;85.85;99952.88;5079777;27;45377;-89
2023/12/11 05:11:13;;;;;;;;;5.00;3.67;;;;;12.28;85.17;99968.34;5079153;28;45228;-88
2023/12/11 05:13:38;;;;;;;;;4.67;3.00;;;;;12.26;85.48;99962.28;5079684;28;45224;-87
2023/12/11 05:16:04;;;;;;;;;3.00;2.00;;;;;12.24;84.76;99968.66;5073655;27;45613;-89
2023/12/11 05:18:29;;;;;;;;;3.00;2.67;;;;;12.23;85.02;99967.81;5063299;28;45420;-89
2023/12/11 05:20:54;;;;;;;;;9.00;2.00;;;;;12.15;85.03;99970.19;5063869;28;45306;-87
2023/12/11 05:23:20;;;;;;;;;2.00;2.00;;;;;12.27;85.20;99977.31;5060730;28;45627;-87
2023/12/11 05:25:45;;;;;;;;;5.67;4.00;;;;;12.28;84.98;99957.69;5063146;27;46711;-88
2023/12/11 05:28:11;;;;;;;;;5.00;2.67;;;;;12.33;84.59;99968.00;5057211;27;46044;-90
2023/12/11 05:30:36;;;;;;;;;5.33;3.00;;;;;12.29;84.96;99955.84;5060057;28;45327;-89
2023/12/11 05:33:02;;;;;;;;;6.00;3.00;;;;;12.29;84.71;99956.72;5061197;27;45687;-87
2023/12/11 05:35:27;;;;;;;;;4.00;2.00;;;;;12.36;84.24;99976.59;5066845;28;45229;-90
2023/12/11 05:37:53;;;;;;;;;5.00;2.00;;;;;12.36;84.39;99960.59;5062688;28;45437;-89
2023/12/11 05:40:18;;;;;;;;;5.67;3.00;;;;;12.39;84.22;99971.06;5059600;28;45527;-87
2023/12/11 05:42:44;;;;;;;;;3.33;1.33;;;;;12.35;84.49;99963.41;5062726;28;45343;-89
2023/12/11 05:45:09;;;;;;;;;4.33;2.00;;;;;12.35;84.36;99958.91;5066598;28;45122;-85
2023/12/11 05:47:35;;;;;;;;;5.00;3.00;;;;;12.35;84.63;99958.91;5058447;28;45268;-88
2023/12/11 05:50:01;;;;;;;;;6.00;2.00;;;;;12.40;84.18;99955.94;5059957;28;45438;-84
2023/12/11 05:52:26;;;;;;;;;7.67;3.33;;;;;12.31;84.46;99929.94;5059426;28;45332;-85
2023/12/11 05:54:52;;;;;;;;;4.00;1.00;;;;;12.37;84.16;99962.34;5059140;28;45206;-88
2023/12/11 05:57:17;;;;;;;;;4.00;4.00;;;;;12.36;84.56;99965.09;5076773;28;45969;-87
2023/12/11 05:59:43;;;;;;;;;3.67;2.33;;;;;12.37;84.10;99977.50;5079105;28;45329;-89
2023/12/11 06:02:08;;;;;;;;;11.33;4.67;;;;;12.34;84.37;99973.22;5072289;28;45182;-88
2023/12/11 06:04:33;;;;;;;;;2.00;2.00;;;;;12.38;84.24;99974.72;5046498;28;44812;-87
2023/12/11 06:06:59;;;;;;;;;3.67;3.00;;;;;12.38;84.08;99972.03;5059919;28;45405;-89
2023/12/11 06:09:24;;;;;;;;;8.00;1.67;;;;;12.38;83.88;99985.38;5059580;28;45253;-87
2023/12/11 06:11:49;;;;;;;;;7.33;4.00;;;;;12.36;84.19;99978.44;5061436;28;45339;-86
2023/12/11 06:14:14;;;;;;;;;5.00;3.33;;;;;12.44;83.74;99983.22;5073137;27;45347;-90
2023/12/11 06:16:41;;;;;;;;;2.67;1.67;;;;;12.38;83.69;99977.38;5077004;28;46695;-88
2023/12/11 06:19:06;;;;;;;;;5.67;3.00;;;;;12.42;83.63;100002.00;5078888;28;45460;-87
2023/12/11 06:21:31;;;;;;;;;7.67;4.33;;;;;12.39;83.35;99995.06;5066465;27;45465;-88
2023/12/11 06:23:57;;;;;;;;;6.67;3.67;;;;;12.43;83.48;99992.19;5076274;27;45625;-86
2023/12/11 06:26:42;;;;;;;;;2.00;2.00;;;;;12.38;83.45;99996.03;5068488;27;45421;-87
2023/12/11 06:29:08;;;;;;;;;5.67;4.00;;;;;12.30;83.27;99976.22;5079719;28;45384;-92
2023/12/11 06:31:34;;;;;;;;;4.00;2.00;;;;;12.37;83.00;99980.16;5082219;28;45347;-87
2023/12/11 06:33:59;;;;;;;;;3.67;2.00;;;;;12.27;83.12;99971.97;5063803;28;45253;-88
2023/12/11 06:36:28;;;;;;;;;3.00;2.67;;;;;12.33;83.33;99989.31;5083061;27;46306;-89
2023/12/11 06:38:53;;;;;;;;;4.33;1.67;;;;;12.31;83.48;100000.09;5081819;28;45329;-87
2023/12/11 06:41:18;;;;;;;;;5.00;2.33;;;;;12.22;83.75;99997.25;5079493;28;45614;-90
2023/12/11 06:43:47;;;;;;;;;2.00;2.00;;;;;12.29;83.72;100007.38;5091777;27;45371;-88
2023/12/11 06:46:13;;;;;;;;;8.67;3.00;;;;;12.32;83.53;100012.47;5110336;27;45354;-89
2023/12/11 06:48:38;;;;;;;;;7.00;2.67;;;;;12.29;83.28;100007.38;5106568;27;45365;-89
2023/12/11 06:51:03;;;;;;;;;3.67;3.67;;;;;12.36;83.18;100024.59;5083530;27;45560;-90
2023/12/11 06:53:30;;;;;;;;;10.00;4.00;;;;;12.33;83.52;100013.31;5082043;27;45259;-91
2023/12/11 06:55:58;;;;;;;;;4.67;3.67;;;;;12.37;83.32;100015.69;5073244;28;45341;-90
2023/12/11 06:58:23;;;;;;;;;6.33;3.33;;;;;12.33;83.15;100000.00;5077854;27;45316;-89
2023/12/11 07:00:50;;;;;;;;;4.00;2.33;;;;;12.38;82.97;100006.72;5079797;27;45296;-86
2023/12/11 07:03:15;;;;;;;;;2.00;2.00;;;;;12.28;83.06;99989.66;5061977;27;45749;-86
2023/12/11 07:05:42;;;;;;;;;6.00;2.67;;;;;12.45;82.90;100006.25;5086741;27;45419;-86
2023/12/11 07:08:08;;;;;;;;;3.00;3.00;;;;;12.43;82.63;100014.38;5068622;27;45574;-83
2023/12/11 07:10:34;;;;;;;;;3.67;2.00;;;;;12.39;82.83;100032.41;5085671;27;45338;-87
2023/12/11 07:12:59;;;;;;;;;6.00;2.67;;;;;12.36;82.99;100019.28;5075628;27;45577;-85
2023/12/11 07:15:24;;;;;;;;;6.00;4.00;;;;;12.33;82.91;100027.50;5061235;28;45503;-85
2023/12/11 07:17:50;;;;;;;;;4.00;2.33;;;;;12.32;83.52;100039.13;5074626;28;45449;-84
2023/12/11 07:20:15;;;;;;;;;5.00;3.00;;;;;12.28;83.54;100034.16;5092116;27;45308;-85
2023/12/11 07:22:40;;;;;;;;;7.33;3.00;;;;;12.24;83.48;100029.97;5097313;27;45314;-84
2023/12/11 07:25:06;;;;;;;;;5.67;4.00;;;;;12.15;83.61;100020.84;5097222;27;45399;-85
2023/12/11 07:27:33;;;;;;;;;3.00;3.00;;;;;12.09;83.48;100032.78;5097993;27;45378;-85
2023/12/11 07:29:59;;;;;;;;;9.67;3.00;;;;;12.05;83.54;100025.97;5097569;27;45350;-85
2023/12/11 07:32:24;;;;;;;;;9.33;5.00;;;;;12.15;83.52;100058.16;5098746;27;45260;-85
2023/12/11 07:34:50;;;;;;;;;15.00;4.00;;;;;12.15;83.95;100059.97;5098424;27;47201;-85
2023/12/11 07:37:15;;;;;;;;;5.33;3.00;;;;;12.18;83.76;100081.94;5067074;28;45372;-85
2023/12/11 07:39:41;;;;;;;;;7.33;2.00;;;;;12.18;83.00;100073.94;5049365;28;45457;-88
2023/12/11 07:42:06;;;;;;;;;6.67;3.67;;;;;12.22;83.05;100088.75;5077654;28;45234;-89
2023/12/11 07:44:31;;;;;;;;;4.00;4.00;;;;;12.25;83.32;100077.88;5072882;27;46697;-84
2023/12/11 07:46:57;;;;;;;;;6.00;2.00;;;;;12.21;82.91;100071.03;5070810;28;45523;-87
2023/12/11 07:49:22;;;;;;;;;11.33;5.00;;;;;12.22;83.14;100074.56;5075495;28;45333;-85
2023/12/11 07:51:47;;;;;;;;;6.67;3.00;;;;;12.18;83.16;100068.59;5078088;28;45519;-84
2023/12/11 07:54:13;;;;;;;;;4.00;2.67;;;;;12.17;83.46;100077.56;5077431;27;46536;-85
2023/12/11 07:56:40;;;;;;;;;7.33;5.33;;;;;12.16;83.63;100077.66;5077331;28;45587;-85
2023/12/11 07:59:06;;;;;;;;;13.00;7.00;;;;;12.14;83.46;100088.44;5071586;28;45563;-86
2023/12/11 08:01:35;;;;;;;;;10.00;5.00;;;;;12.09;83.39;100099.41;5077649;28;45244;-87
2023/12/11 08:04:01;;;;;;;;;3.00;2.00;;;;;12.06;83.26;100107.63;5074946;27;46028;-87
2023/12/11 08:06:27;;;;;;;;;7.00;4.00;;;;;11.95;83.36;100088.88;5076864;28;45411;-86
2023/12/11 08:08:55;;;;;;;;;7.33;4.00;;;;;11.86;82.87;100076.19;5076695;28;45431;-87
2023/12/11 08:11:27;;;;;;;;;5.00;2.00;;;;;12.06;83.23;100117.44;5058765;28;45458;-86
2023/12/11 08:13:52;;;;;;;;;7.33;3.67;;;;;11.79;83.16;100072.25;5059268;28;45420;-86
2023/12/11 08:16:19;;;;;;;;;4.33;4.00;;;;;11.79;83.59;100083.75;5062888;28;45337;-86
2023/12/11 08:18:44;;;;;;;;;5.00;2.00;;;;;12.01;83.24;100108.94;5077078;28;45348;-86
2023/12/11 08:21:11;;;;;;;;;3.00;3.00;;;;;12.00;83.25;100116.06;5078242;28;45197;-86
2023/12/11 08:23:40;;;;;;;;;3.67;3.67;;;;;12.08;83.08;100128.84;5083406;28;45989;-84
2023/12/11 08:26:06;;;;;;;;;6.00;4.67;;;;;12.03;82.98;100123.00;5081231;28;45399;-84
2023/12/11 08:28:31;;;;;;;;;6.00;6.00;;;;;12.08;82.74;100134.16;5080920;27;45286;-84
2023/12/11 08:30:57;;;;;;;;;3.67;3.33;;;;;11.95;83.01;100120.84;5080712;28;45258;-85
2023/12/11 08:33:22;;;;;;;;;6.67;2.33;;;;;12.06;83.15;100136.09;5076533;28;45478;-85
2023/12/11 08:35:47;;;;;;;;;3.00;3.00;;;;;12.07;82.20;100132.47;5060453;28;45342;-85
2023/12/11 08:38:15;;;;;;;;;6.33;3.33;;;;;12.03;82.36;100129.16;5060788;28;45363;-84
2023/12/11 08:40:41;;;;;;;;;3.67;3.33;;;;;12.13;82.50;100148.06;5072503;28;45742;-87
2023/12/11 08:43:06;;;;;;;;;6.00;4.00;;;;;12.06;82.37;100133.44;5057368;28;46508;-86
2023/12/11 08:45:32;;;;;;;;;3.00;3.00;;;;;12.13;82.13;100145.38;5072943;28;45496;-86
2023/12/11 08:47:58;;;;;;;;;6.00;4.00;;;;;12.05;82.20;100135.25;5082151;28;45168;-86
2023/12/11 08:50:23;;;;;;;;;8.33;4.00;;;;;12.16;81.90;100166.50;5077902;28;45650;-89
2023/12/11 08:52:48;;;;;;;;;4.33;3.00;;;;;12.17;81.81;100162.88;5057158;28;47499;-85
2023/12/11 08:55:14;;;;;;;;;4.00;2.00;;;;;12.16;81.11;100158.50;5080312;27;45387;-87
2023/12/11 08:57:41;;;;;;;;;9.00;3.00;;;;;12.11;81.72;100157.97;5082719;28;45374;-85
2023/12/11 09:00:10;;;;;;;;;11.00;4.00;;;;;12.13;81.77;100160.53;5063512;28;45461;-86
2023/12/11 09:02:35;;;;;;;;;12.00;4.00;;;;;12.12;81.69;100165.00;5079806;28;46242;-85
2023/12/11 09:05:01;;;;;;;;;9.00;7.00;;;;;12.10;81.66;100165.09;5077799;27;45314;-85
2023/12/11 09:07:26;;;;;;;;;6.33;4.00;;;;;12.14;81.93;100167.56;5066667;28;45352;-85
2023/12/11 09:09:52;;;;;;;;;4.33;2.00;;;;;12.02;81.67;100154.13;5059275;28;45490;-87
2023/12/11 09:12:17;;;;;;;;;6.67;4.33;;;;;12.06;82.28;100173.41;5060232;28;45283;-85
2023/12/11 09:14:43;;;;;;;;;2.33;2.33;;;;;12.06;81.92;100168.06;5060465;28;45334;-84
2023/12/11 09:17:10;;;;;;;;;6.00;1.00;;;;;12.05;82.18;100177.03;5061359;28;45393;-87
2023/12/11 09:19:35;;;;;;;;;8.33;3.00;;;;;12.02;82.46;100175.44;5064983;28;45524;-87
2023/12/11 09:22:01;;;;;;;;;7.67;4.00;;;;;11.97;82.27;100179.34;5071473;28;45390;-89
2023/12/11 09:24:26;;;;;;;;;10.00;4.00;;;;;12.00;82.22;100185.34;5082451;27;45480;-92
2023/12/11 09:26:51;;;;;;;;;3.00;3.00;;;;;11.97;82.44;100182.03;5066793;28;45388;-90
2023/12/11 09:29:17;;;;;;;;;8.67;3.00;;;;;11.93;82.44;100184.06;5086726;27;45342;-85
2023/12/11 09:31:43;;;;;;;;;4.00;1.00;;;;;11.92;82.57;100185.00;5084139;27;45447;-87
2023/12/11 09:34:09;;;;;;;;;9.00;3.33;;;;;11.80;82.95;100176.03;5079618;27;45550;-86
2023/12/11 09:36:34;;;;;;;;;7.00;4.00;;;;;11.82;82.85;100183.94;5072075;28;45494;-85
2023/12/11 09:38:59;;;;;;;;;10.67;9.33;;;;;11.84;82.98;100197.13;5079759;28;45521;-85
2023/12/11 09:41:32;;;;;;;;;10.67;6.67;;;;;11.91;83.05;100209.09;5058698;28;46573;-84
2023/12/11 09:44:00;;;;;;;;;5.00;3.00;;;;;11.86;83.10;100200.59;5078880;27;45377;-86
2023/12/11 09:46:29;;;;;;;;;5.00;4.33;;;;;11.86;83.03;100213.91;5078626;28;45405;-83
2023/12/11 09:48:55;;;;;;;;;5.67;4.00;;;;;11.86;83.20;100217.41;5079293;28;45503;-86
2023/12/11 09:51:21;;;;;;;;;3.33;3.33;;;;;11.86;82.93;100221.91;5075888;28;45973;-85
2023/12/11 09:53:48;;;;;;;;;7.00;3.33;;;;;11.86;82.98;100228.09;5058065;28;45454;-83
2023/12/11 09:56:15;;;;;;;;;3.00;3.00;;;;;11.88;82.95;100236.81;5058211;28;45410;-83
2023/12/11 09:58:42;;;;;;;;;5.00;2.00;;;;;11.88;82.64;100238.63;5064523;28;45228;-83
2023/12/11 10:01:09;;;;;;;;;3.00;3.00;;;;;11.89;82.70;100243.00;5079072;27;46169;-84
2023/12/11 10:03:34;;;;;;;;;6.33;4.00;;;;;11.89;82.38;100251.00;5067806;27;45281;-85
2023/12/11 10:06:00;;;;;;;;;7.00;4.00;;;;;11.86;82.48;100245.88;5079711;27;45390;-82
2023/12/11 10:08:26;;;;;;;;;7.00;5.00;;;;;11.89;82.14;100241.19;5079346;28;45573;-84
2023/12/11 10:11:13;;;;;;;;;6.67;4.00;;;;;12.03;82.45;100256.25;5080673;28;45862;-88
2023/12/11 10:13:39;;;;;;;;;5.33;3.67;;;;;12.08;81.81;100249.63;5081382;28;45306;-84
2023/12/11 10:16:08;;;;;;;;;3.00;3.00;;;;;12.15;80.97;100258.09;5071708;28;45394;-85
2023/12/11 10:18:47;;;;;;;;;4.00;3.67;;;;;12.24;81.09;100260.13;5085014;28;45238;-82
2023/12/11 10:21:13;;;;;;;;;4.67;2.00;;;;;12.30;80.59;100254.38;5083066;28;45269;-84
2023/12/11 10:23:38;;;;;;;;;5.67;2.00;;;;;12.38;80.47;100256.53;5071345;28;45383;-83
2023/12/11 10:26:05;;;;;;;;;4.67;3.00;;;;;12.40;79.78;100239.44;5061783;28;45445;-84
2023/12/11 10:28:30;;;;;;;;;5.67;5.33;;;;;12.56;79.54;100259.72;5072229;27;45736;-83
2023/12/11 10:30:59;;;;;;;;;7.67;2.33;;;;;12.65;79.13;100257.28;5060683;28;45360;-84
2023/12/11 10:33:26;;;;;;;;;4.33;3.00;;;;;12.71;78.54;100247.97;5060054;28;45236;-85
2023/12/11 10:35:53;;;;;;;;;6.67;5.00;;;;;12.80;77.64;100250.00;5070153;28;45333;-84
2023/12/11 10:38:28;;;;;;;;;4.67;4.67;;;;;12.88;77.14;100260.13;5078033;28;45414;-84
2023/12/11 10:40:54;;;;;;;;;3.33;2.33;;;;;12.89;77.46;100241.34;5078397;27;46200;-85
2023/12/11 10:43:20;;;;;;;;;3.67;3.00;;;;;12.95;77.53;100251.59;5078109;28;45433;-85
2023/12/11 10:45:46;;;;;;;;;10.67;3.33;;;;;13.08;76.97;100251.56;5078155;28;45432;-84
2023/12/11 10:48:11;;;;;;;;;8.33;5.00;;;;;13.22;76.56;100255.94;5078976;27;45435;-84
2023/12/11 10:50:37;;;;;;;;;5.00;2.00;;;;;13.32;75.11;100254.31;5063620;28;45468;-85
2023/12/11 10:53:03;;;;;;;;;7.33;4.33;;;;;13.45;75.23;100254.28;5057825;28;45350;-87
2023/12/11 10:55:33;;;;;;;;;13.33;10.00;;;;;13.48;74.50;100257.56;5061208;28;45358;-86
2023/12/11 10:58:00;;;;;;;;;4.00;2.67;;;;;13.48;75.02;100238.00;5080245;27;45555;-87
2023/12/11 11:00:27;;;;;;;;;3.00;2.67;;;;;13.72;73.91;100251.38;5077736;28;46434;-87
2023/12/11 11:02:57;;;;;;;;;7.67;5.00;;;;;13.81;73.14;100258.72;5077978;28;45232;-85
2023/12/11 11:05:25;;;;;;;;;5.33;5.33;;;;;13.78;72.05;100245.56;5078414;28;45322;-85
2023/12/11 11:08:19;;;;;;;;;6.33;6.00;;;;;13.98;72.59;100252.94;5061736;28;46031;-85
2023/12/11 11:11:17;;;;;;;;;3.67;3.67;;;;;14.13;70.60;100250.94;5062129;28;46038;-85
2023/12/11 11:14:08;;;;;;;;;4.33;3.00;;;;;14.20;70.99;100246.81;5057457;28;45221;-86
2023/12/11 11:16:52;;;;;;;;;6.33;3.67;;;;;14.34;70.59;100248.44;5056957;28;45437;-86
2023/12/11 11:19:17;;;;;;;;;6.33;5.00;;;;;14.33;69.36;100228.00;5058927;28;45376;-86
2023/12/11 11:22:06;;;;;;;;;13.00;4.00;;;;;14.48;69.44;100250.94;5057290;28;45407;-83
2023/12/11 11:24:37;;;;;;;;;8.67;3.67;;;;;14.58;68.66;100262.59;5071134;28;45273;-85